St. Mary's Airport

About
Name: St. Mary's Airport
Identifier:  KSM/PASM
Local Time:  17. Aug 20:31 AKDT
Location
Flights per Day
10 flights
Distance: 226km (140mi)
Punctuality
70% (3 flights per day delayed)
Delay Average: 10 minutes
Current Weather
 16 C (Humidity: 59%)
  10kt (18km/h / 11mph) from 360°
17 knots Gusts

  14km (9 mi.)
 
 METAR PASM 180402Z AUTO 36010G17KT 9SM CLR 16/08 A3053 RMK AO2 SLP345 T01560083

Current Flights

Departures
Number Departure To Airline
Arrivals
Number Arrival From Airline
 7H3453 19:20  Mountain Village Ravn Alaska

Current Delays

Departures
N/A
Arrivals
N/A

Destinations

Top Destinations
Airport Flights
per week
Seats
per week
  Anchorage (ANC) 6 207 0 29
  Aniak (ANI) 0 25 0 3
  Nome (OME) 0 - 0 0
  Hooper Bay (HPB) 0 8 0 1
  King Salmon (AKN) 0 - 0 0

Airlines & Planes

Top Airlines
Airline Flights
per Day
Seats
per Day
  Era Alaska 0 34
Lynden Air Cargo 0 -
Bering Air 0 -
Ravn Alaska 0 -
Alaska Central Express 0 -
Top Plane Types
Model Flights Seats
Bombardier Dash 8-100 0.9/day 34/day 34.53333333333333
Lockheed C-130 0.1/day - 0
Piper PA-31-350 0.1/day - 0
Beech 1900D 0.1/day - 0